Tropical Cyclones
[Index]
Main Index Home Page Stock Weather Photos Extreme Storms Discussion Storm News and Storm Chasing Reports Tropical Cyclones / Hurricanes / Typhoons Weather Data and Links Wild Fires / Bushfires Weather Observation Techniques Weather Picture Catalogue Tornado Pictures and Reports Stock Video Footage and DVDs for sale
Season 2007-2008 Tropical Cyclone LOLA Track Map
Season 2007-2008 Summaries (Operational Data): [AU] [SIO] [SPAC] [SH]
<<- Previous TC | 2007-2008 Season | Next TC ->>

click for intensity scale information  Lat/long Grid: Show Hide

 Date Labels: Show Hide

Operational Tropical Cyclone Data : JTWC Advisories

Name: LOLA
Number: 0825

20 Mar 2008 12:00 UTC to 26 Mar 2008 12:00 UTC

    date/time    lat    long     hPa   cat  kts
2008-03-20 12   14.5    63.0     999         15          
2008-03-21 00   14.9    60.7     999         20          
2008-03-21 12   15.3    60.2     997         25          
2008-03-21 18   15.6    59.9     996         30          
2008-03-22 00   16.0    59.3     994    1    35          
2008-03-22 06   16.3    58.7     994    1    35          
2008-03-22 12   16.1    58.5     994    1    35          
2008-03-22 18   15.9    58.0     997         30          
2008-03-23 00   15.9    57.9     998         30          
2008-03-23 06   16.2    57.3     998         30          
2008-03-23 12   16.6    57.2     998         25          
2008-03-23 18   16.7    56.4     998         25          
2008-03-24 00   16.3    55.9     998         25          
2008-03-24 06   14.9    55.9     998         25          
2008-03-24 12   14.6    56.1     998         25          
2008-03-24 18   14.7    56.4     999         25          
2008-03-25 00   15.0    56.5     998         25          
2008-03-25 06   15.5    55.8     997         30          
2008-03-25 12   15.8    56.3     999         25          
2008-03-25 18   16.1    56.3    1000         25          
2008-03-26 00   17.4    56.7    1000         25          
2008-03-26 06   18.2    56.7    1000         25          
2008-03-26 12   17.7    56.5    1001         20          
Winds are 10-min average.

Tropical cyclone tracks developed by Michael Bath using operational warnings and advisories and Google Maps.


[Australian Severe Weather index] [Copyright Notice] [Email Contacts] [Search This Site] [Privacy Policy]
Document: tropical_cyclone_lola.htm Updated: 2 May 2017